Time;durP1;ratioP1;P1;durP2;ratioP2;P2;SDS_P1;SDS_P2;PMS_P1;PMS_P2;Temp;Humidity;BMP_temperature;BMP_pressure;BME280_temperature;BME280_humidity;BME280_pressure;Samples;Min_cycle;Max_cycle;Signal;HPM_P1;HPM_P2
2022/01/27 00:00:43;;;;;;;35.57;20.87;;;5.20;99.90;;;;;;5075864;28;20198;-89
2022/01/27 00:04:10;;;;;;;33.50;20.67;;;5.10;99.90;;;;;;5073712;28;20208;-88
2022/01/27 00:06:48;;;;;;;30.00;20.17;;;5.30;99.90;;;;;;5075539;28;20213;-90
2022/01/27 00:09:24;;;;;;;31.03;20.03;;;5.20;99.90;;;;;;5075559;28;20202;-90
2022/01/27 00:11:54;;;;;;;35.63;20.20;;;5.10;99.90;;;;;;5075713;28;20560;-91
2022/01/27 00:14:24;;;;;;;34.47;21.30;;;5.20;99.90;;;;;;5075638;28;20206;-89
2022/01/27 00:16:58;;;;;;;36.97;22.30;;;5.20;99.90;;;;;;5076011;28;20292;-89
2022/01/27 00:19:31;;;;;;;32.00;20.80;;;5.10;99.90;;;;;;5076221;28;20215;-89
2022/01/27 00:22:06;;;;;;;33.80;21.07;;;5.10;99.90;;;;;;5076429;28;20220;-89
2022/01/27 00:24:39;;;;;;;30.97;20.10;;;5.00;99.90;;;;;;5075452;28;20669;-90
2022/01/27 00:27:11;;;;;;;36.33;21.67;;;5.00;99.90;;;;;;5073482;28;20201;-90
2022/01/27 00:29:41;;;;;;;29.13;19.07;;;4.90;99.90;;;;;;5075084;28;20208;-90
2022/01/27 00:32:14;;;;;;;32.53;19.53;;;4.90;99.90;;;;;;5077710;28;20805;-88
2022/01/27 00:34:44;;;;;;;31.00;18.70;;;5.00;99.90;;;;;;5077829;28;20607;-88
2022/01/27 00:37:31;;;;;;;31.03;20.00;;;5.00;99.90;;;;;;5077384;28;20246;-89
2022/01/27 00:40:01;;;;;;;31.80;19.53;;;4.90;99.90;;;;;;5077652;28;20208;-89
2022/01/27 00:42:29;;;;;;;30.93;20.83;;;5.00;99.90;;;;;;5077446;28;20210;-89
2022/01/27 00:44:57;;;;;;;29.40;20.17;;;5.00;99.90;;;;;;5078875;28;20555;-89
2022/01/27 00:50:55;;;;;;;29.57;19.50;;;4.90;99.90;;;;;;5076915;28;20670;-90
2022/01/27 00:53:39;;;;;;;32.13;20.07;;;4.90;99.90;;;;;;5077341;28;20229;-89
2022/01/27 00:56:19;;;;;;;33.70;20.10;;;4.80;99.90;;;;;;5076712;28;20488;-90
2022/01/27 00:58:56;;;;;;;31.23;20.00;;;4.90;99.90;;;;;;5077071;28;20506;-89
2022/01/27 01:01:31;;;;;;;35.57;22.17;;;4.90;99.90;;;;;;5077074;28;20450;-90
2022/01/27 01:04:07;;;;;;;31.07;20.30;;;4.80;99.90;;;;;;5075195;28;20473;-88
2022/01/27 01:06:43;;;;;;;31.73;20.20;;;4.90;99.90;;;;;;5076581;28;20454;-92
2022/01/27 01:14:49;;;;;;;30.70;19.87;;;4.80;99.90;;;;;;5076831;28;20287;-90
2022/01/27 01:17:37;;;;;;;33.00;20.43;;;4.80;99.90;;;;;;5075584;28;20246;-90
2022/01/27 01:20:23;;;;;;;32.77;21.30;;;4.80;99.90;;;;;;5076703;28;20443;-90
2022/01/27 01:31:29;;;;;;;30.37;19.67;;;4.90;99.90;;;;;;5076179;28;20444;-90
2022/01/27 01:34:12;;;;;;;35.40;22.57;;;4.90;99.90;;;;;;5076072;28;20776;-90
2022/01/27 01:36:46;;;;;;;30.30;20.60;;;4.90;99.90;;;;;;5076148;28;20554;-89
2022/01/27 01:39:18;;;;;;;31.17;19.80;;;4.90;99.90;;;;;;5075954;28;20447;-90
2022/01/27 01:41:49;;;;;;;34.07;21.13;;;4.90;99.90;;;;;;5076177;28;20434;-89
2022/01/27 01:44:19;;;;;;;32.50;20.93;;;4.80;99.90;;;;;;5076074;28;20486;-92
2022/01/27 01:47:06;;;;;;;37.33;25.75;;;4.70;99.90;;;;;;5085090;28;20522;-91
2022/01/27 01:49:38;;;;;;;35.13;21.70;;;4.80;99.90;;;;;;5095863;28;20201;-88
2022/01/27 01:52:11;;;;;;;36.23;20.17;;;4.80;99.90;;;;;;5096488;28;20201;-91
2022/01/27 01:54:41;;;;;;;33.33;20.57;;;4.80;99.90;;;;;;5096484;28;20201;-89
2022/01/27 01:57:15;;;;;;;32.13;20.10;;;5.00;99.90;;;;;;5096027;28;20449;-91
2022/01/27 01:59:42;;;;;;;32.27;20.30;;;5.10;99.90;;;;;;5096107;28;20204;-91
2022/01/27 02:02:16;;;;;;;38.23;20.27;;;4.90;99.90;;;;;;5096564;28;20208;-91
2022/01/27 02:05:10;;;;;;;34.20;20.57;;;5.00;99.90;;;;;;5096232;28;20229;-91
2022/01/27 02:07:57;;;;;;;33.37;20.63;;;4.90;99.90;;;;;;5096032;28;20209;-89
2022/01/27 02:17:48;;;;;;;33.37;19.73;;;5.00;99.90;;;;;;5097134;28;20229;-90
2022/01/27 02:19:22;;;;;;;31.53;20.00;;;4.90;99.90;;;;;;5053681;28;20194;-90
2022/01/27 02:21:53;;;;;;;35.17;20.83;;;5.10;99.90;;;;;;5073637;28;20299;-89
2022/01/27 02:24:24;;;;;;;35.28;26.40;;;5.10;99.90;;;;;;5093733;28;20434;-90
2022/01/27 02:26:52;;;;;;;33.93;21.67;;;5.10;99.90;;;;;;5094392;28;20209;-89
2022/01/27 02:29:21;;;;;;;38.63;19.97;;;5.00;99.90;;;;;;5095167;28;20236;-91
2022/01/27 02:31:53;;;;;;;34.40;22.37;;;4.80;99.90;;;;;;5095440;28;20201;-92
2022/01/27 02:34:20;;;;;;;32.33;19.93;;;4.80;99.90;;;;;;5095117;28;20209;-90
2022/01/27 02:36:47;;;;;;;36.63;20.87;;;4.70;99.90;;;;;;5094843;28;20449;-89
2022/01/27 02:39:19;;;;;;;30.97;20.13;;;4.80;99.90;;;;;;5095257;28;20212;-90
2022/01/27 02:41:56;;;;;;;34.63;19.57;;;4.80;99.90;;;;;;5095160;28;20452;-91
2022/01/27 02:44:33;;;;;;;32.90;20.60;;;4.80;99.90;;;;;;5094757;28;20271;-90
2022/01/27 02:47:06;;;;;;;31.43;19.07;;;4.80;99.90;;;;;;5095301;28;20458;-89
2022/01/27 02:49:57;;;;;;;37.27;21.30;;;4.70;99.90;;;;;;5095220;28;20927;-91
2022/01/27 02:52:30;;;;;;;36.10;20.57;;;4.70;99.90;;;;;;5094593;28;20456;-91
2022/01/27 02:55:01;;;;;;;31.80;19.40;;;4.70;99.90;;;;;;5095074;28;20449;-90
2022/01/27 02:57:31;;;;;;;34.93;20.60;;;4.70;99.90;;;;;;5094725;28;20430;-89
2022/01/27 03:00:00;;;;;;;38.10;20.80;;;4.70;99.90;;;;;;5093564;28;20514;-91
2022/01/27 03:02:43;;;;;;;35.60;20.83;;;4.70;99.90;;;;;;5094878;28;20431;-92
2022/01/27 03:05:16;;;;;;;36.97;21.63;;;4.70;99.90;;;;;;5094640;28;20481;-89
2022/01/27 03:08:20;;;;;;;41.00;21.57;;;4.60;99.90;;;;;;5093381;28;20434;-90
2022/01/27 03:10:54;;;;;;;35.43;21.27;;;4.60;99.90;;;;;;5093361;28;20437;-90
2022/01/27 03:13:21;;;;;;;36.77;20.50;;;4.60;99.90;;;;;;5094899;28;20526;-90
2022/01/27 03:15:53;;;;;;;38.77;22.20;;;4.50;99.90;;;;;;5094491;28;20909;-90
2022/01/27 03:18:24;;;;;;;39.63;22.20;;;4.60;99.90;;;;;;5094472;28;20461;-90
2022/01/27 03:20:57;;;;;;;38.63;21.47;;;4.60;99.90;;;;;;5094400;28;20449;-91
2022/01/27 03:23:43;;;;;;;39.43;21.47;;;4.60;99.90;;;;;;5094781;28;20449;-90
2022/01/27 03:26:17;;;;;;;38.37;21.93;;;4.70;99.90;;;;;;5094133;28;20508;-90
2022/01/27 03:32:05;;;;;;;39.20;20.53;;;4.70;99.90;;;;;;5094350;28;20401;-92
2022/01/27 03:34:34;;;;;;;39.47;21.93;;;4.70;99.90;;;;;;5094128;28;20827;-89
2022/01/27 03:37:04;;;;;;;46.45;23.20;;;4.70;99.90;;;;;;5093980;28;20445;-90
2022/01/27 03:39:37;;;;;;;38.13;21.47;;;4.80;99.90;;;;;;5094123;28;20649;-91
2022/01/27 03:42:12;;;;;;;38.17;21.23;;;4.80;99.90;;;;;;5094596;28;20450;-91
2022/01/27 03:44:41;;;;;;;37.13;22.03;;;4.80;99.90;;;;;;5094394;28;20477;-92
2022/01/27 03:50:30;;;;;;;35.40;21.30;;;4.80;99.90;;;;;;5094297;28;20528;-90
2022/01/27 03:53:03;;;;;;;39.37;23.20;;;4.70;99.90;;;;;;5094630;28;20801;-90
2022/01/27 03:55:59;;;;;;;38.17;21.40;;;4.60;99.90;;;;;;5095061;28;20779;-92
2022/01/27 03:58:30;;;;;;;41.03;22.47;;;4.60;99.90;;;;;;5094424;28;20481;-91
2022/01/27 04:01:01;;;;;;;41.07;22.23;;;4.50;99.90;;;;;;5094175;28;20450;-90
2022/01/27 04:03:36;;;;;;;40.13;22.27;;;4.50;99.90;;;;;;5094294;28;20461;-92
2022/01/27 04:06:10;;;;;;;38.03;22.77;;;4.40;99.90;;;;;;5097419;28;20881;-91
2022/01/27 04:09:27;;;;;;;48.77;23.90;;;4.40;99.90;;;;;;5098582;28;20442;-91
2022/01/27 04:11:54;;;;;;;43.30;24.30;;;4.50;99.90;;;;;;5098593;28;20521;-91
2022/01/27 04:14:22;;;;;;;48.10;29.75;;;4.50;99.90;;;;;;5098245;28;20912;-90
2022/01/27 04:16:52;;;;;;;45.03;25.83;;;4.50;99.90;;;;;;5098591;28;20197;-91
2022/01/27 04:19:22;;;;;;;46.20;26.60;;;4.50;99.90;;;;;;5097427;28;20453;-92
2022/01/27 04:21:50;;;;;;;47.10;24.80;;;4.60;99.90;;;;;;5098561;28;20449;-90
2022/01/27 04:24:17;;;;;;;47.60;24.77;;;4.60;99.90;;;;;;5098218;28;20457;-90
2022/01/27 04:26:52;;;;;;;42.40;24.10;;;4.50;99.90;;;;;;5097444;28;20541;-93
2022/01/27 04:29:21;;;;;;;43.97;24.60;;;4.50;99.90;;;;;;5099224;28;20436;-91
2022/01/27 04:31:53;;;;;;;41.87;25.07;;;4.50;99.90;;;;;;5100524;28;20514;-91
2022/01/27 04:34:23;;;;;;;43.87;24.93;;;4.50;99.90;;;;;;5100727;28;20445;-91
2022/01/27 04:36:50;;;;;;;43.50;24.43;;;4.40;99.90;;;;;;5101787;28;20453;-90
2022/01/27 04:39:33;;;;;;;45.50;26.33;;;4.40;99.90;;;;;;5101739;28;20441;-91
2022/01/27 04:42:06;;;;;;;43.87;24.57;;;4.40;99.90;;;;;;5119287;28;20450;-90
2022/01/27 04:44:39;;;;;;;44.67;25.77;;;4.40;99.90;;;;;;5118096;28;20469;-90
2022/01/27 04:47:12;;;;;;;47.87;26.63;;;4.40;99.90;;;;;;5117481;28;20456;-92
2022/01/27 04:49:39;;;;;;;49.00;26.83;;;4.50;99.90;;;;;;5117719;28;20441;-90
2022/01/27 04:52:47;;;;;;;55.67;35.78;;;4.40;99.90;;;;;;5113846;28;20430;-91
2022/01/27 04:55:34;;;;;;;51.43;27.67;;;4.50;99.90;;;;;;5099008;28;20205;-92
2022/01/27 04:58:12;;;;;;;51.23;26.77;;;4.50;99.90;;;;;;5099217;28;20442;-89
2022/01/27 05:01:33;;;;;;;51.27;28.63;;;4.50;99.90;;;;;;5099279;28;20445;-91
2022/01/27 05:07:39;;;;;;;50.93;26.77;;;4.30;99.90;;;;;;5097517;28;20417;-90
2022/01/27 05:10:16;;;;;;;46.67;25.23;;;4.30;99.90;;;;;;5097142;28;20945;-89
2022/01/27 05:12:52;;;;;;;51.77;26.70;;;4.30;99.90;;;;;;5096934;28;20944;-89
2022/01/27 05:15:24;;;;;;;48.63;26.93;;;4.30;99.90;;;;;;5096752;28;20808;-89
2022/01/27 05:18:11;;;;;;;52.33;26.07;;;4.30;99.90;;;;;;5097211;28;20457;-91
2022/01/27 05:20:39;;;;;;;53.40;26.60;;;4.20;99.90;;;;;;5098126;28;20449;-90
2022/01/27 05:23:32;;;;;;;48.20;25.37;;;4.20;99.90;;;;;;5097837;28;20503;-91
2022/01/27 05:26:03;;;;;;;51.37;27.17;;;4.20;99.90;;;;;;5097604;28;20546;-90
2022/01/27 05:28:33;;;;;;;58.78;36.47;;;4.20;99.90;;;;;;5096558;28;20438;-90
2022/01/27 05:31:06;;;;;;;54.50;31.07;;;4.30;99.90;;;;;;5097015;28;20288;-90
2022/01/27 05:33:39;;;;;;;53.33;29.47;;;4.30;99.90;;;;;;5096833;28;20466;-91
2022/01/27 05:36:08;;;;;;;53.13;28.90;;;4.30;99.90;;;;;;5096739;28;20473;-91
2022/01/27 05:38:42;;;;;;;44.47;24.03;;;4.20;99.90;;;;;;5096673;28;20800;-91
2022/01/27 05:41:19;;;;;;;55.60;27.90;;;4.20;99.90;;;;;;5096731;28;20553;-90
2022/01/27 05:43:49;;;;;;;54.57;28.30;;;4.20;99.90;;;;;;5096194;28;20460;-91
2022/01/27 05:47:00;;;;;;;52.27;27.83;;;4.20;99.90;;;;;;5096390;28;20975;-90
2022/01/27 05:49:33;;;;;;;51.60;27.53;;;4.20;99.90;;;;;;5096161;28;20484;-91
2022/01/27 05:52:06;;;;;;;56.40;27.80;;;4.20;99.90;;;;;;5096037;28;20426;-91
2022/01/27 05:54:40;;;;;;;53.73;28.30;;;4.30;99.90;;;;;;5097289;28;20446;-90
2022/01/27 05:57:06;;;;;;;58.60;30.67;;;4.30;99.90;;;;;;5096034;28;20772;-90
2022/01/27 05:59:41;;;;;;;56.00;29.03;;;4.30;99.90;;;;;;5096062;28;20456;-91
2022/01/27 06:02:08;;;;;;;55.63;28.17;;;4.30;99.90;;;;;;5095296;28;20468;-90
2022/01/27 06:04:34;;;;;;;58.30;29.97;;;4.20;99.90;;;;;;5097670;28;20457;-89
2022/01/27 06:07:05;;;;;;;57.00;29.87;;;4.30;99.90;;;;;;5095827;28;20474;-91
2022/01/27 06:09:57;;;;;;;58.70;29.80;;;4.40;99.90;;;;;;5095773;28;20953;-89
2022/01/27 06:12:29;;;;;;;59.40;28.17;;;4.50;99.90;;;;;;5094397;28;20971;-90
2022/01/27 06:18:21;;;;;;;59.37;29.67;;;4.60;99.90;;;;;;5096213;28;20409;-89
2022/01/27 06:20:59;;;;;;;56.10;29.23;;;4.70;99.90;;;;;;5095808;28;20189;-90
2022/01/27 06:23:45;;;;;;;56.27;29.33;;;4.60;99.90;;;;;;5095736;28;20949;-89
2022/01/27 06:26:16;;;;;;;61.10;29.87;;;4.70;99.90;;;;;;5095964;28;20492;-91
2022/01/27 06:28:49;;;;;;;52.77;28.93;;;4.80;99.90;;;;;;5096075;28;20460;-90
2022/01/27 06:31:21;;;;;;;58.43;28.50;;;4.80;99.90;;;;;;5095391;28;20453;-89
2022/01/27 06:33:48;;;;;;;52.50;29.73;;;4.80;99.90;;;;;;5096599;28;20640;-90
2022/01/27 06:36:21;;;;;;;57.90;30.53;;;4.90;99.90;;;;;;5095885;28;20453;-89
2022/01/27 06:38:52;;;;;;;48.00;27.97;;;5.00;99.90;;;;;;5095952;28;20663;-89
2022/01/27 06:41:27;;;;;;;51.40;27.40;;;5.00;99.90;;;;;;5095966;28;20189;-89
2022/01/27 06:43:54;;;;;;;50.50;27.87;;;5.00;99.90;;;;;;5095770;28;20204;-88
2022/01/27 06:46:24;;;;;;;54.87;28.27;;;5.10;99.90;;;;;;5094780;28;20221;-87
2022/01/27 06:48:52;;;;;;;55.30;27.60;;;5.10;99.90;;;;;;5094346;28;20205;-89
2022/01/27 06:51:20;;;;;;;61.20;28.70;;;5.20;99.90;;;;;;5095255;28;20209;-87
2022/01/27 06:53:48;;;;;;;47.97;26.83;;;5.30;99.90;;;;;;5095314;28;20205;-88
2022/01/27 06:56:18;;;;;;;50.47;27.57;;;5.30;99.90;;;;;;5094922;28;20201;-91
2022/01/27 06:58:49;;;;;;;51.90;25.60;;;5.30;99.90;;;;;;5095426;28;20192;-88
2022/01/27 07:01:18;;;;;;;50.63;27.30;;;5.30;99.90;;;;;;5096125;28;20201;-90
2022/01/27 07:03:59;;;;;;;47.93;27.00;;;5.30;99.90;;;;;;5095605;28;20254;-89
2022/01/27 07:06:26;;;;;;;48.93;27.37;;;5.40;99.90;;;;;;5095295;28;20884;-91
2022/01/27 07:08:59;;;;;;;49.40;26.67;;;5.40;99.90;;;;;;5095840;28;20201;-90
2022/01/27 07:11:33;;;;;;;53.10;26.93;;;5.40;99.90;;;;;;5096717;28;20197;-92
2022/01/27 07:14:02;;;;;;;49.60;26.90;;;5.40;99.90;;;;;;5097760;28;20203;-92
2022/01/27 07:16:29;;;;;;;50.13;26.53;;;5.50;99.90;;;;;;5098865;28;20250;-90
2022/01/27 07:18:56;;;;;;;50.80;27.07;;;5.60;99.90;;;;;;5096509;28;20209;-87
2022/01/27 07:21:24;;;;;;;47.30;26.63;;;5.60;99.90;;;;;;5096104;28;20268;-91
2022/01/27 07:24:13;;;;;;;46.70;26.57;;;5.50;99.90;;;;;;5095695;28;20189;-92
2022/01/27 07:26:43;;;;;;;47.90;25.43;;;5.50;99.90;;;;;;5094477;28;20232;-89
2022/01/27 07:29:18;;;;;;;48.80;26.53;;;5.40;99.90;;;;;;5095408;28;20638;-89
2022/01/27 07:31:50;;;;;;;49.33;26.27;;;5.50;99.90;;;;;;5094909;28;20275;-89
2022/01/27 07:34:23;;;;;;;53.87;27.10;;;5.50;99.90;;;;;;5094974;28;20205;-90
2022/01/27 07:36:59;;;;;;;52.03;27.20;;;5.60;99.90;;;;;;5095313;28;20636;-91
2022/01/27 07:39:26;;;;;;;50.33;27.13;;;5.50;99.90;;;;;;5095545;28;20221;-91
2022/01/27 07:42:00;;;;;;;46.10;26.33;;;5.60;99.90;;;;;;5093778;28;20216;-91
2022/01/27 07:44:28;;;;;;;48.83;27.00;;;5.60;99.90;;;;;;5094005;28;20229;-89
2022/01/27 07:46:58;;;;;;;47.07;25.00;;;5.50;99.90;;;;;;5094853;28;20239;-90
2022/01/27 07:49:29;;;;;;;50.37;25.23;;;5.60;99.90;;;;;;5095130;28;20204;-91
2022/01/27 07:52:01;;;;;;;50.93;26.83;;;5.60;99.90;;;;;;5096423;28;20250;-89
2022/01/27 07:54:54;;;;;;;50.20;26.80;;;5.60;99.90;;;;;;5096306;28;20196;-89
2022/01/27 07:57:26;;;;;;;48.00;25.47;;;5.70;99.90;;;;;;5096440;28;20221;-89
2022/01/27 07:59:55;;;;;;;56.40;28.80;;;5.80;99.90;;;;;;5097619;28;20204;-91
2022/01/27 08:02:22;;;;;;;45.33;25.83;;;5.80;99.90;;;;;;5096844;28;20269;-90
2022/01/27 08:04:49;;;;;;;44.50;27.70;;;5.90;99.90;;;;;;5098319;28;20200;-89
2022/01/27 08:07:16;;;;;;;51.70;26.03;;;6.00;99.90;;;;;;5097505;28;20702;-88
2022/01/27 08:09:43;;;;;;;49.47;27.17;;;6.10;99.90;;;;;;5094870;28;20611;-87
2022/01/27 08:12:11;;;;;;;50.53;25.97;;;6.10;99.90;;;;;;5094477;28;20201;-89
2022/01/27 08:14:38;;;;;;;46.17;25.47;;;6.20;99.90;;;;;;5095893;28;20227;-89
2022/01/27 08:17:09;;;;;;;44.80;25.67;;;6.20;99.90;;;;;;5095220;28;20542;-89
2022/01/27 08:19:36;;;;;;;47.53;25.23;;;6.30;99.90;;;;;;5094439;28;20193;-86
2022/01/27 08:22:03;;;;;;;44.67;23.47;;;6.20;99.90;;;;;;5094807;28;20278;-88
2022/01/27 08:24:30;;;;;;;43.03;24.53;;;6.30;99.90;;;;;;5095227;28;20201;-90
2022/01/27 08:27:02;;;;;;;42.50;23.87;;;6.40;99.90;;;;;;5097301;28;20336;-87
2022/01/27 08:29:34;;;;;;;46.13;28.70;;;6.30;99.90;;;;;;5095952;28;20909;-88
2022/01/27 08:32:10;;;;;;;45.10;24.57;;;6.30;99.90;;;;;;5096428;28;20281;-89
2022/01/27 08:34:41;;;;;;;43.63;23.20;;;6.40;99.90;;;;;;5096507;28;20201;-90
2022/01/27 08:37:10;;;;;;;42.23;23.17;;;6.40;99.90;;;;;;5094999;28;20213;-91
2022/01/27 08:39:38;;;;;;;42.37;22.77;;;6.50;99.90;;;;;;5094118;28;20201;-89
2022/01/27 08:42:06;;;;;;;39.33;22.33;;;6.50;99.90;;;;;;5093569;28;20641;-88
2022/01/27 08:44:34;;;;;;;37.20;20.07;;;6.60;99.90;;;;;;5092857;28;20247;-92
2022/01/27 08:47:01;;;;;;;34.67;20.07;;;6.70;99.90;;;;;;5095310;28;20232;-90
2022/01/27 08:49:28;;;;;;;34.47;18.20;;;6.80;99.90;;;;;;5094479;28;20284;-88
2022/01/27 08:51:57;;;;;;;39.07;19.80;;;6.80;99.90;;;;;;5100635;28;20209;-88
2022/01/27 08:54:25;;;;;;;35.97;19.17;;;6.90;99.90;;;;;;5099816;28;20201;-91
2022/01/27 08:56:52;;;;;;;36.87;19.97;;;7.00;99.90;;;;;;5100320;28;20202;-87
2022/01/27 08:59:18;;;;;;;36.30;19.77;;;7.00;99.90;;;;;;5098094;28;20208;-89
2022/01/27 09:01:46;;;;;;;37.63;19.50;;;7.10;99.90;;;;;;5100822;28;20202;-88
2022/01/27 09:04:15;;;;;;;32.95;18.65;;;7.20;99.90;;;;;;5099433;28;20098;-90
2022/01/27 09:06:43;;;;;;;38.33;19.10;;;7.20;99.90;;;;;;5100201;28;20220;-90
2022/01/27 09:09:12;;;;;;;36.63;18.93;;;7.20;99.90;;;;;;5099929;28;20205;-89
2022/01/27 09:11:43;;;;;;;33.53;17.93;;;7.20;99.90;;;;;;5099672;28;20201;-89
2022/01/27 09:14:11;;;;;;;31.40;17.73;;;7.20;99.90;;;;;;5099817;28;20255;-92
2022/01/27 09:16:38;;;;;;;30.57;18.33;;;7.30;99.90;;;;;;5098667;28;20201;-90
2022/01/27 09:19:05;;;;;;;27.13;15.90;;;7.20;99.90;;;;;;5099912;28;20601;-88
2022/01/27 09:21:41;;;;;;;32.27;19.13;;;7.30;99.90;;;;;;5100042;28;20201;-90
2022/01/27 09:24:13;;;;;;;37.07;18.80;;;7.30;99.90;;;;;;5098309;28;20201;-83
2022/01/27 09:26:51;;;;;;;33.03;18.33;;;7.30;99.90;;;;;;5097116;28;20243;-88
2022/01/27 09:29:19;;;;;;;35.77;18.77;;;7.30;99.90;;;;;;5096619;28;20201;-89
2022/01/27 09:31:47;;;;;;;38.63;20.40;;;7.40;99.90;;;;;;5097700;28;20205;-92
2022/01/27 09:34:14;;;;;;;31.10;17.37;;;7.20;99.90;;;;;;5097304;28;20196;-90
2022/01/27 09:36:42;;;;;;;40.83;19.73;;;7.30;99.90;;;;;;5097085;28;20227;-89
2022/01/27 09:39:11;;;;;;;32.13;18.33;;;7.30;99.90;;;;;;5096673;28;20201;-90
2022/01/27 09:41:39;;;;;;;39.88;24.13;;;7.20;99.90;;;;;;5094882;28;20422;-90
2022/01/27 09:44:10;;;;;;;42.23;21.37;;;7.40;99.90;;;;;;5096850;28;20228;-90
2022/01/27 09:46:40;;;;;;;35.03;19.37;;;7.30;99.90;;;;;;5096236;28;20704;-92
2022/01/27 09:49:13;;;;;;;32.00;18.13;;;7.40;99.90;;;;;;5096613;28;20667;-88
2022/01/27 09:51:43;;;;;;;36.47;19.47;;;7.30;99.90;;;;;;5095841;28;20660;-90
2022/01/27 09:54:10;;;;;;;37.80;19.13;;;7.40;99.90;;;;;;5096300;28;20209;-88
2022/01/27 09:56:37;;;;;;;39.37;19.13;;;7.20;99.90;;;;;;5096609;28;20216;-90
2022/01/27 09:59:05;;;;;;;36.90;18.63;;;7.30;99.90;;;;;;5096030;28;20208;-89
2022/01/27 10:01:37;;;;;;;32.93;18.03;;;7.20;99.90;;;;;;5096336;28;20208;-88
2022/01/27 10:04:07;;;;;;;41.17;19.10;;;7.20;99.90;;;;;;5095019;28;20628;-87
2022/01/27 10:06:37;;;;;;;38.73;18.77;;;7.20;99.90;;;;;;5094730;28;20331;-87
2022/01/27 10:09:19;;;;;;;36.80;18.53;;;7.10;99.90;;;;;;5095200;28;20251;-87
2022/01/27 10:11:47;;;;;;;36.83;19.23;;;7.20;99.90;;;;;;5095994;28;20189;-88
2022/01/27 10:14:24;;;;;;;36.17;18.27;;;7.20;99.90;;;;;;5095879;28;20205;-87
2022/01/27 10:16:54;;;;;;;44.63;25.88;;;7.20;99.90;;;;;;5100232;28;20968;-86
2022/01/27 10:19:22;;;;;;;38.23;20.50;;;7.30;99.90;;;;;;5106231;28;20354;-87
2022/01/27 10:21:49;;;;;;;38.27;20.37;;;7.30;99.90;;;;;;5104753;28;20220;-88
2022/01/27 10:24:23;;;;;;;33.93;18.13;;;7.30;99.90;;;;;;5103801;28;20189;-86
2022/01/27 10:27:18;;;;;;;36.30;18.33;;;7.30;99.90;;;;;;5094641;28;20240;-85
2022/01/27 10:30:03;;;;;;;34.20;19.37;;;7.30;99.90;;;;;;5097425;28;20321;-84
2022/01/27 10:32:42;;;;;;;37.80;18.03;;;7.40;99.90;;;;;;5095814;28;20298;-87
2022/01/27 10:35:10;;;;;;;34.43;18.63;;;7.40;99.90;;;;;;5096124;28;20671;-86
2022/01/27 10:37:56;;;;;;;31.80;16.93;;;7.40;99.90;;;;;;5096287;28;20507;-84
2022/01/27 10:40:26;;;;;;;44.27;17.37;;;7.50;99.90;;;;;;5094807;28;20655;-85
2022/01/27 10:43:05;;;;;;;31.80;16.97;;;7.50;99.90;;;;;;5095616;28;20288;-85
2022/01/27 10:45:33;;;;;;;30.60;17.87;;;7.60;99.90;;;;;;5094614;28;20252;-86
2022/01/27 10:48:23;;;;;;;31.40;16.90;;;7.60;99.90;;;;;;5095463;28;20221;-84
2022/01/27 10:51:00;;;;;;;26.53;16.30;;;7.70;99.90;;;;;;5095562;28;20632;-85
2022/01/27 10:53:42;;;;;;;39.55;22.63;;;7.70;99.90;;;;;;5073574;28;20846;-81
2022/01/27 10:56:09;;;;;;;36.40;20.50;;;7.90;99.90;;;;;;5075148;28;20206;-80
2022/01/27 10:58:37;;;;;;;28.90;16.57;;;7.90;99.90;;;;;;5085733;28;20656;-78
2022/01/27 11:01:05;;;;;;;35.47;17.20;;;7.80;99.90;;;;;;5094895;28;20190;-92
2022/01/27 11:03:35;;;;;;;31.40;15.07;;;7.90;99.90;;;;;;5092821;28;20308;-77
2022/01/27 11:06:09;;;;;;;29.37;15.77;;;7.90;99.90;;;;;;5094006;28;20198;-81
2022/01/27 11:08:39;;;;;;;30.27;14.03;;;7.90;99.90;;;;;;5096234;28;20277;-79
2022/01/27 11:11:06;;;;;;;25.00;13.70;;;7.90;99.90;;;;;;5095195;28;20199;-79
2022/01/27 11:13:35;;;;;;;25.30;13.77;;;7.90;99.90;;;;;;5094846;28;20204;-79
2022/01/27 11:16:03;;;;;;;33.80;14.53;;;7.90;99.90;;;;;;5094588;28;20240;-78
2022/01/27 11:18:31;;;;;;;21.13;12.37;;;7.90;99.90;;;;;;5094287;28;20197;-80
2022/01/27 11:21:04;;;;;;;26.50;13.83;;;7.90;99.90;;;;;;5095194;28;20197;-81
2022/01/27 11:26:29;;;;;;;26.93;12.27;;;8.00;99.90;;;;;;5049871;28;20676;-77
2022/01/27 11:29:03;;;;;;;17.80;11.33;;;8.00;99.90;;;;;;5076347;28;20285;-80
2022/01/27 11:31:54;;;;;;;27.00;12.03;;;8.00;99.90;;;;;;5075481;28;20201;-82
2022/01/27 11:34:22;;;;;;;18.40;11.43;;;8.00;99.90;;;;;;5073955;28;20206;-78
2022/01/27 11:37:08;;;;;;;21.30;12.37;;;8.00;99.90;;;;;;5096313;28;20208;-79
2022/01/27 11:39:51;;;;;;;17.30;10.57;;;8.10;99.90;;;;;;5096514;28;20288;-82
2022/01/27 11:42:48;;;;;;;20.67;10.83;;;8.10;99.90;;;;;;5093366;28;20194;-85
2022/01/27 11:45:34;;;;;;;16.10;10.43;;;8.10;99.90;;;;;;5094610;28;20252;-79
2022/01/27 11:48:10;;;;;;;18.80;10.10;;;8.10;99.90;;;;;;5080398;28;20212;-79
2022/01/27 11:50:49;;;;;;;16.40;9.80;;;8.10;99.90;;;;;;5097166;28;20193;-77
2022/01/27 11:53:31;;;;;;;20.33;12.55;;;8.10;99.90;;;;;;5094516;28;20516;-80
2022/01/27 11:55:59;;;;;;;17.17;10.30;;;8.20;99.90;;;;;;5094831;28;20201;-79
2022/01/27 11:58:26;;;;;;;18.10;9.17;;;8.30;99.90;;;;;;5094591;28;20212;-80
2022/01/27 12:01:19;;;;;;;19.30;8.80;;;8.30;99.90;;;;;;5092989;28;20212;-79
2022/01/27 12:04:08;;;;;;;16.53;8.43;;;8.40;99.90;;;;;;5080717;28;20208;-79
2022/01/27 12:06:36;;;;;;;17.07;9.40;;;8.40;99.90;;;;;;5095601;28;20217;-82
2022/01/27 12:09:29;;;;;;;18.07;8.73;;;8.40;99.90;;;;;;5095514;28;20221;-80
2022/01/27 12:11:59;;;;;;;18.10;9.37;;;8.50;99.90;;;;;;5084627;28;20270;-80
2022/01/27 12:14:30;;;;;;;16.53;7.80;;;8.50;99.90;;;;;;5096938;28;20193;-79
2022/01/27 12:17:22;;;;;;;12.03;7.17;;;8.50;99.90;;;;;;5094873;28;20203;-79
2022/01/27 12:19:51;;;;;;;19.23;10.13;;;8.50;99.90;;;;;;5091903;28;20426;-81
2022/01/27 12:22:19;;;;;;;17.27;9.10;;;8.70;99.90;;;;;;5095707;28;20193;-82
2022/01/27 12:24:56;;;;;;;17.13;9.53;;;8.70;99.90;;;;;;5097588;28;20194;-86
2022/01/27 12:27:24;;;;;;;12.57;7.97;;;8.60;99.90;;;;;;5101564;28;20235;-91
2022/01/27 12:29:52;;;;;;;17.47;8.60;;;8.70;99.90;;;;;;5096571;28;20255;-82
2022/01/27 12:32:32;;;;;;;15.03;7.27;;;8.60;99.90;;;;;;5105909;28;20211;-89
2022/01/27 12:35:02;;;;;;;18.03;8.37;;;8.70;99.90;;;;;;5108178;28;20207;-90
2022/01/27 12:37:35;;;;;;;16.90;8.40;;;8.70;99.90;;;;;;5105549;28;20679;-90
2022/01/27 12:40:17;;;;;;;16.60;8.33;;;8.70;99.90;;;;;;5108094;28;20212;-89
2022/01/27 12:42:53;;;;;;;13.30;7.63;;;8.80;99.90;;;;;;5109948;28;20201;-88
2022/01/27 12:45:27;;;;;;;16.67;10.43;;;8.80;99.90;;;;;;5114752;28;20520;-88
2022/01/27 12:47:56;;;;;;;11.87;8.33;;;8.80;99.90;;;;;;5114774;28;20270;-89
2022/01/27 12:50:24;;;;;;;18.53;8.77;;;8.80;99.90;;;;;;5116057;28;20205;-87
2022/01/27 12:52:56;;;;;;;16.60;8.73;;;8.80;99.90;;;;;;5115012;28;20232;-90
2022/01/27 12:55:31;;;;;;;12.20;8.27;;;8.80;99.90;;;;;;5111238;28;20197;-89
2022/01/27 12:58:06;;;;;;;13.03;8.47;;;8.80;99.90;;;;;;5100043;28;20215;-88
2022/01/27 13:00:38;;;;;;;12.17;7.30;;;8.80;99.90;;;;;;5099923;28;20200;-91
2022/01/27 13:03:09;;;;;;;20.33;8.30;;;8.80;99.90;;;;;;5100800;28;20193;-90
2022/01/27 13:05:39;;;;;;;15.03;8.23;;;8.90;99.90;;;;;;5101483;28;20200;-88
2022/01/27 13:08:22;;;;;;;19.73;7.97;;;8.80;99.90;;;;;;5099747;28;20224;-90
2022/01/27 13:10:56;;;;;;;13.73;8.07;;;8.80;99.90;;;;;;5101033;28;20231;-88
2022/01/27 13:13:35;;;;;;;15.82;9.80;;;8.90;99.90;;;;;;5103929;28;20992;-88
2022/01/27 13:16:14;;;;;;;11.70;8.53;;;8.90;99.90;;;;;;5102119;28;20273;-85
2022/01/27 13:19:01;;;;;;;11.33;7.80;;;8.90;99.90;;;;;;5102999;28;20192;-88
2022/01/27 13:21:33;;;;;;;12.23;7.13;;;8.90;99.90;;;;;;5101557;28;20205;-88
2022/01/27 13:24:14;;;;;;;11.90;7.30;;;9.00;99.90;;;;;;5103088;28;20245;-87
2022/01/27 13:26:45;;;;;;;11.43;8.00;;;9.00;99.90;;;;;;5103188;28;20197;-86
2022/01/27 13:29:15;;;;;;;15.83;7.80;;;9.00;99.90;;;;;;5104652;28;20209;-89
2022/01/27 13:31:48;;;;;;;18.07;9.50;;;9.00;99.90;;;;;;5103126;28;20201;-86
2022/01/27 13:34:21;;;;;;;15.00;8.47;;;9.20;99.90;;;;;;5102894;28;20288;-87
2022/01/27 13:37:03;;;;;;;21.27;10.23;;;9.10;99.90;;;;;;5081387;28;20664;-86
2022/01/27 13:41:16;;;;;;;15.40;9.43;;;9.10;99.90;;;;;;5095532;28;20204;-87
2022/01/27 13:42:51;;;;;;;18.57;10.00;;;9.20;99.90;;;;;;5084057;28;20310;-87
2022/01/27 13:45:21;;;;;;;14.53;9.60;;;9.20;99.90;;;;;;5101716;28;20314;-87
2022/01/27 13:47:51;;;;;;;18.03;11.03;;;9.20;99.90;;;;;;5100587;28;20239;-87
2022/01/27 13:50:23;;;;;;;17.50;11.03;;;9.30;99.90;;;;;;5099973;28;20618;-87
2022/01/27 13:52:52;;;;;;;17.57;10.57;;;9.40;99.90;;;;;;5097712;28;20228;-85